Historyczne dane pomiarowe

Dodano dane terminowe – wersja testowa.

Dane z okresu 1951-2019

Wersja bazy: 1.34 [2019-03-16, lista zmian], aktualizacja planowana na 2019-04-15

Dane meteo z obszaru Polski uzyskane na podstawie danych udostępnionych przez Instytut Meteorologii i Gospodarki Wodnej – Państwowy Instytut Badawczy.

 

Wybierz Datę:    

       

TemperaturaWilgotnośćWiatrCiśnienieOpadyŚniegCzas trwania zjawisk
 Stacja t tx tn tng RH VA  wxwx mslp ppp RRR   cm mm wxwxwxwxwxwxwx
1961-08-14 14.4 19.5 9.4--- 5.0 1.0---- 0.0------------
1961-08-13 14.3 19.9 13.0--- 8.0 1.0---- 10.5------------
1961-08-12 20.5 23.8 17.1--- 8.0 1.0---- 26.5------------
1961-08-11 24.8 33.1 19.0--- 2.7 1.7---- 1.9------------
1961-08-10 23.8 28.1 18.1--- 1.3 1.3---- 0.0------------
1961-08-09 23.5 29.4 14.6--- 0.0 1.0---- 6.8------------
1961-08-08 19.3 23.6 16.3--- 8.0 1.0---- 0.5------------
1961-08-07 24.6 30.6 16.6--- 1.3 1.7---- 0.0------------
1961-08-06 22.1 29.7 13.1--- 0.7 1.3---- 0.0------------
1961-08-05 18.1 22.7 13.2--- 3.0 1.3---- 0.0------------
1961-08-04 17.8 22.2 11.6--- 5.3 1.0---- 0.0------------
1961-08-03 19.5 27.0 10.9--- 4.0 1.7---- 16.5------------
1961-08-02 18.3 26.6 9.3--- 0.3 1.0---- 0.0------------
1961-08-01 16.1 21.0 12.0--- 6.3 1.7---- 0.0------------
1961-07-31 15.2 20.6 12.6--- 6.0 1.0---- 7.8------------
1961-07-30 14.5 15.8 12.8--- 8.0 1.0---- 23.2------------
1961-07-29 16.7 19.8 14.3--- 8.0 1.3---- 4.5------------
1961-07-28 20.9 27.3 15.6--- 8.0 2.0---- 0.6------------
1961-07-27 21.0 26.2 10.9--- 6.0 2.0---- 0.0------------
1961-07-26 16.8 21.1 12.4--- 7.3 2.0---- 0.0------------
1961-07-25 15.8 20.3 11.6--- 8.0 1.0---- 0.0------------
1961-07-24 16.4 20.2 8.5--- 6.3 1.0---- 0.0------------
1961-07-23 15.2 21.1 10.6--- 4.3 1.0---- 3.5------------
1961-07-22 14.6 20.6 11.6--- 6.0 1.0---- 0.4------------
1961-07-21 16.6 20.9 12.6--- 6.3 2.0---- 11.0------------
1961-07-20 17.5 23.8 7.8--- 5.0 1.7---- 20.5------------
1961-07-19 16.2 23.8 7.1--- 5.3 1.3---- 0.4------------
1961-07-18 15.8 21.4 9.1--- 3.0 1.3---- 1.6------------
1961-07-17 16.3 20.6 9.8--- 6.7 1.3---- 0.0------------
1961-07-16 18.8 27.0 11.1--- 4.0 2.3---- 0.2------------
1961-07-15 19.1 25.6 12.5--- 3.0 1.3---- 0.4------------
1961-07-14 15.1 23.4 12.5--- 6.3 2.3---- 0.8------------
1961-07-13 24.2 31.5 9.5--- 3.7 2.0---- 0.5------------
1961-07-12 19.0 22.2 9.9--- 4.7 1.3---- 0.0------------
1961-07-11 16.0 21.6 9.0--- 6.0 1.3---- 0.0------------
1961-07-10 14.9 23.6 11.1--- 7.0 1.3---- 2.2------------
1961-07-09 17.4 24.1 6.4--- 5.0 1.0---- 0.0------------
1961-07-08 14.7 19.7 6.9--- 4.0 1.0---- 0.1------------
1961-07-07 13.2 19.2 7.5--- 5.0 1.7---- 0.2------------
1961-07-06 14.2 21.4 9.0--- 3.7 1.3---- 0.2------------
1961-07-05 17.1 21.4 14.8--- 7.3 1.7---- 6.0------------
1961-07-04 22.9 30.6 14.4--- 4.0 1.3---- 0.0------------
1961-07-03 22.2 31.2 11.4--- 0.0 1.3---- 0.0------------
1961-07-02 20.7 27.6 9.9--- 0.0 1.0---- 0.0------------
1961-07-01 19.4 27.8 10.9--- 1.3 1.0---- 0.0------------
1961-06-30 17.9 23.2 8.0--- 1.3 1.3---- 0.0------------
1961-06-29 17.2 21.1 7.4--- 4.3 1.7---- 1.1------------
1961-06-28 15.8 25.1 12.0--- 4.0 2.0---- 9.6------------
1961-06-27 24.9 32.2 16.3--- 2.7 1.7---- 1.7------------
1961-06-26 22.4 31.2 12.9--- 3.7 2.0---- 0.0------------
1961-06-25 20.3 27.4 10.0--- 0.0 2.0---- 0.0------------
1961-06-24 18.8 24.1 11.6--- 2.0 2.0---- 0.0------------
1961-06-23 16.8 22.0 13.4--- 6.0 1.3---- 4.5------------
1961-06-22 16.4 22.6 10.6--- 2.0 1.3---- 0.0------------
1961-06-21 17.7 23.1 4.9--- 0.3 1.3---- 0.0------------
1961-06-20 14.6 21.6 10.3--- 1.3 1.3---- 0.0------------
1961-06-19 20.6 27.1 8.0--- 6.3 1.3---- 0.0------------
1961-06-18 19.5 26.4 8.6--- 3.7 2.0---- 0.0------------
1961-06-17 15.7 23.2 6.6--- 3.0 3.7---- 0.0------------
1961-06-16 13.6 18.5 7.6--- 3.3 1.3---- 2.4------------
273.3 ms

 

Źródłem pochodzenia danych jest Instytut Meteorologii i Gospodarki Wodnej – Państwowy Instytut Badawczy. Dane Instytutu Meteorologii i Gospodarki Wodnej – Państwowego Instytutu Badawczego zostały przetworzone.

Dane źródłowe można odnaleźć na stronie https://dane.imgw.pl